createdAt,value
2018-10-17T00:00:37.290Z,14.17
2018-10-17T00:01:15.272Z,11.53
2018-10-17T00:01:53.188Z,7.20
2018-10-17T00:02:31.053Z,16.70
2018-10-17T00:03:09.388Z,10.23
2018-10-17T00:03:47.292Z,10.30
2018-10-17T00:04:25.762Z,14.63
2018-10-17T00:05:03.751Z,6.10
2018-10-17T00:05:42.213Z,11.43
2018-10-17T00:06:20.655Z,9.73
2018-10-17T00:06:58.538Z,8.23
2018-10-17T00:07:36.997Z,8.80
2018-10-17T00:08:15.154Z,10.47
2018-10-17T00:08:53.559Z,8.00
2018-10-17T00:09:31.439Z,8.27
2018-10-17T00:10:10.629Z,7.73
2018-10-17T00:10:48.467Z,10.10
2018-10-17T00:11:26.876Z,12.80
2018-10-17T00:12:05.022Z,14.73
2018-10-17T00:12:44.069Z,7.40
2018-10-17T00:13:21.989Z,15.23
2018-10-17T00:13:59.858Z,11.60
2018-10-17T00:14:37.646Z,12.67
2018-10-17T00:15:16.122Z,9.33
2018-10-17T00:15:54.276Z,7.63
2018-10-17T00:16:32.497Z,8.33
2018-10-17T00:17:11.225Z,8.77
2018-10-17T00:17:49.755Z,7.60
2018-10-17T00:18:27.750Z,9.20
2018-10-17T00:19:07.419Z,8.03
2018-10-17T00:19:45.719Z,19.40
2018-10-17T00:20:25.450Z,8.47
2018-10-17T00:21:03.479Z,7.20
2018-10-17T00:21:41.841Z,7.97
2018-10-17T00:22:19.729Z,7.03
2018-10-17T00:22:57.601Z,7.53
2018-10-17T00:23:35.822Z,7.43
2018-10-17T00:24:14.232Z,15.08
2018-10-17T00:24:52.194Z,8.97
2018-10-17T00:25:30.018Z,8.63
2018-10-17T00:26:08.281Z,8.67
2018-10-17T00:26:46.797Z,6.97
2018-10-17T00:27:25.189Z,10.40
2018-10-17T00:28:04.041Z,12.13
2018-10-17T00:28:42.237Z,9.30
2018-10-17T00:29:20.225Z,7.80
2018-10-17T00:29:58.625Z,7.50
2018-10-17T00:30:37.324Z,6.87
2018-10-17T00:31:16.216Z,7.23
2018-10-17T00:31:54.587Z,6.90
2018-10-17T00:32:32.492Z,5.90
2018-10-17T00:33:10.389Z,8.20
2018-10-17T00:33:49.344Z,6.60
2018-10-17T00:34:27.249Z,6.40
2018-10-17T00:35:05.300Z,8.73
2018-10-17T00:35:43.195Z,10.27
2018-10-17T00:36:21.326Z,8.60
2018-10-17T00:36:59.826Z,8.43
2018-10-17T00:37:39.024Z,7.90
2018-10-17T00:38:17.809Z,6.33
2018-10-17T00:38:56.390Z,8.13
2018-10-17T00:39:34.941Z,8.17
2018-10-17T00:40:13.156Z,15.10
2018-10-17T00:40:51.254Z,10.73
2018-10-17T00:41:29.288Z,8.10
2018-10-17T00:42:07.110Z,5.80
2018-10-17T00:42:45.017Z,7.00
2018-10-17T00:43:25.323Z,5.67
2018-10-17T00:44:03.717Z,6.30
2018-10-17T00:44:42.009Z,5.63
2018-10-17T00:45:19.993Z,5.63
2018-10-17T00:45:58.417Z,6.10
2018-10-17T00:46:36.319Z,7.90
2018-10-17T00:47:14.602Z,7.47
2018-10-17T00:47:53.225Z,13.53
2018-10-17T00:48:31.136Z,5.10
2018-10-17T00:49:09.390Z,6.47
2018-10-17T00:49:47.531Z,6.37
2018-10-17T00:50:25.917Z,6.40
2018-10-17T00:51:03.739Z,8.33
2018-10-17T00:51:42.311Z,6.23
2018-10-17T00:52:20.575Z,10.10
2018-10-17T00:52:58.481Z,7.23
2018-10-17T00:53:36.774Z,6.77
2018-10-17T00:54:14.828Z,7.33
2018-10-17T00:54:54.301Z,8.83
2018-10-17T00:55:32.657Z,6.73
2018-10-17T00:56:11.349Z,8.10
2018-10-17T00:56:49.721Z,8.07
2018-10-17T00:57:27.736Z,7.00
2018-10-17T00:58:05.590Z,14.23
2018-10-17T00:58:43.851Z,8.77
2018-10-17T00:59:21.756Z,10.90
2018-10-17T00:59:59.911Z,11.27
2018-10-17T01:00:38.317Z,9.17
2018-10-17T01:01:17.018Z,10.97
2018-10-17T01:01:55.543Z,10.47
2018-10-17T01:02:34.060Z,12.23
2018-10-17T01:03:14.210Z,7.47
2018-10-17T01:03:52.640Z,9.00
2018-10-17T01:04:30.609Z,9.83
2018-10-17T01:05:09.007Z,10.90
2018-10-17T01:05:47.035Z,20.47
2018-10-17T01:06:25.332Z,9.43
2018-10-17T01:07:04.919Z,10.57
2018-10-17T01:07:43.021Z,10.30
2018-10-17T01:08:20.965Z,12.60
2018-10-17T01:08:58.961Z,14.83
2018-10-17T01:09:37.229Z,11.97
2018-10-17T01:10:16.028Z,11.70
2018-10-17T01:10:54.352Z,15.70
2018-10-17T01:11:32.915Z,15.70
2018-10-17T01:12:11.282Z,16.03
2018-10-17T01:12:49.755Z,16.33
2018-10-17T01:13:28.336Z,12.83
2018-10-17T01:14:06.487Z,12.97
2018-10-17T01:14:44.385Z,18.80
2018-10-17T01:15:24.044Z,21.33
2018-10-17T01:16:05.673Z,16.53
2018-10-17T01:16:43.592Z,18.10
2018-10-17T01:17:22.606Z,17.20
2018-10-17T01:18:00.518Z,21.77
2018-10-17T01:18:39.445Z,17.10
2018-10-17T01:19:17.368Z,16.03
2018-10-17T01:19:56.187Z,16.03
2018-10-17T01:20:34.146Z,13.30
2018-10-17T01:21:12.048Z,25.10
2018-10-17T01:21:50.045Z,16.60
2018-10-17T01:22:27.996Z,21.93
2018-10-17T01:23:06.379Z,17.57
2018-10-17T01:23:44.440Z,20.00
2018-10-17T01:24:22.329Z,13.77
2018-10-17T01:25:00.295Z,16.17
2018-10-17T01:25:38.244Z,18.50
2018-10-17T01:26:16.258Z,13.23
2018-10-17T01:26:54.152Z,13.10
2018-10-17T01:27:32.294Z,13.37
2018-10-17T01:28:10.189Z,12.47
2018-10-17T01:28:48.115Z,14.50
2018-10-17T01:29:26.236Z,14.47
2018-10-17T01:30:04.201Z,15.50
2018-10-17T01:30:42.140Z,15.03
2018-10-17T01:31:20.105Z,17.23
2018-10-17T01:31:58.709Z,12.50
2018-10-17T01:32:37.064Z,13.47
2018-10-17T01:33:15.101Z,15.63
2018-10-17T01:33:53.078Z,24.67
2018-10-17T01:34:31.074Z,15.90
2018-10-17T01:35:09.839Z,36.87
2018-10-17T01:35:47.788Z,15.40
2018-10-17T01:36:25.981Z,13.17
2018-10-17T01:37:04.056Z,14.30
2018-10-17T01:37:42.224Z,13.43
2018-10-17T01:38:20.154Z,17.80
2018-10-17T01:38:58.039Z,18.27
2018-10-17T01:39:36.349Z,14.73
2018-10-17T01:40:14.753Z,11.78
2018-10-17T01:40:52.814Z,13.50
2018-10-17T01:41:30.828Z,17.10
2018-10-17T01:42:08.978Z,15.37
2018-10-17T01:42:46.933Z,16.63
2018-10-17T01:43:24.918Z,13.27
2018-10-17T01:44:03.772Z,16.00
2018-10-17T01:44:41.657Z,13.77
2018-10-17T01:45:19.957Z,11.33
2018-10-17T01:45:58.796Z,13.33
2018-10-17T01:46:36.867Z,14.10
2018-10-17T01:47:14.807Z,11.60
2018-10-17T01:47:53.020Z,12.70
2018-10-17T01:48:31.845Z,16.47
2018-10-17T01:49:10.032Z,18.87
2018-10-17T01:49:48.005Z,17.33
2018-10-17T01:50:26.050Z,11.63
2018-10-17T01:51:04.383Z,15.83
2018-10-17T01:51:42.381Z,11.40
2018-10-17T01:52:20.740Z,18.70
2018-10-17T01:52:58.826Z,8.93
2018-10-17T01:53:36.615Z,8.70
2018-10-17T01:54:14.505Z,7.90
2018-10-17T01:54:52.615Z,7.53
2018-10-17T01:55:31.168Z,6.90
2018-10-17T01:56:09.615Z,9.17
2018-10-17T01:56:47.467Z,7.17
2018-10-17T01:57:25.375Z,8.20
2018-10-17T01:58:03.292Z,8.07
2018-10-17T01:58:41.322Z,8.57
2018-10-17T01:59:19.226Z,7.80
2018-10-17T01:59:57.213Z,7.30
2018-10-17T02:00:36.212Z,8.43
2018-10-17T02:01:14.827Z,7.23
2018-10-17T02:01:52.821Z,7.97
2018-10-17T02:02:31.124Z,6.67
2018-10-17T02:03:09.013Z,7.27
2018-10-17T02:03:47.416Z,6.57
2018-10-17T02:04:25.949Z,6.37
2018-10-17T02:05:04.396Z,9.33
2018-10-17T02:05:42.845Z,9.37
2018-10-17T02:06:21.229Z,7.33
2018-10-17T02:06:59.715Z,16.47
2018-10-17T02:07:38.090Z,5.83
2018-10-17T02:08:16.011Z,8.13
2018-10-17T02:08:54.968Z,6.90
2018-10-17T02:09:32.917Z,7.53
2018-10-17T02:10:11.093Z,10.73
2018-10-17T02:10:49.043Z,5.63
2018-10-17T02:11:27.282Z,8.17
2018-10-17T02:12:05.165Z,8.13
2018-10-17T02:12:43.237Z,6.27
2018-10-17T02:13:24.186Z,7.07
2018-10-17T02:14:02.064Z,6.13
2018-10-17T02:14:40.301Z,9.00
2018-10-17T02:15:18.605Z,6.97
2018-10-17T02:15:56.414Z,11.93
2018-10-17T02:16:34.256Z,6.67
2018-10-17T02:17:12.322Z,6.73
2018-10-17T02:17:50.397Z,7.80
2018-10-17T02:18:28.664Z,6.73
2018-10-17T02:19:06.551Z,6.70
2018-10-17T02:19:44.643Z,6.30
2018-10-17T02:20:22.572Z,8.23
2018-10-17T02:21:00.555Z,8.63
2018-10-17T02:21:38.471Z,11.17
2018-10-17T02:22:16.389Z,12.37
2018-10-17T02:22:54.863Z,6.90
2018-10-17T02:23:32.831Z,6.80
2018-10-17T02:24:12.313Z,8.70
2018-10-17T02:24:50.562Z,8.27
2018-10-17T02:25:29.017Z,6.63
2018-10-17T02:26:07.085Z,7.40
2018-10-17T02:26:46.176Z,7.67
2018-10-17T02:27:25.402Z,7.13
2018-10-17T02:28:03.823Z,6.37
2018-10-17T02:28:41.737Z,10.93
2018-10-17T02:29:20.252Z,6.93
2018-10-17T02:29:59.639Z,16.97
2018-10-17T02:30:37.612Z,9.07
2018-10-17T02:31:15.646Z,8.50
2018-10-17T02:31:54.007Z,6.17
2018-10-17T02:32:32.404Z,12.33
2018-10-17T02:33:10.387Z,6.97
2018-10-17T02:33:48.172Z,6.10
2018-10-17T02:34:26.105Z,5.90
2018-10-17T02:35:08.456Z,5.30
2018-10-17T02:35:46.433Z,6.87
2018-10-17T02:36:24.897Z,7.90
2018-10-17T02:37:03.097Z,6.07
2018-10-17T02:37:41.626Z,9.70
2018-10-17T02:38:19.592Z,5.80
2018-10-17T02:38:58.611Z,4.53
2018-10-17T02:39:36.960Z,4.77
2018-10-17T02:40:15.164Z,8.17
2018-10-17T02:40:53.315Z,4.70
2018-10-17T02:41:31.824Z,5.20
2018-10-17T02:42:10.292Z,5.30
2018-10-17T02:42:50.635Z,9.00
2018-10-17T02:43:29.359Z,6.77
2018-10-17T02:44:09.666Z,6.63
2018-10-17T02:44:48.115Z,5.73
2018-10-17T02:45:26.697Z,5.03
2018-10-17T02:46:05.010Z,5.37
2018-10-17T02:46:43.640Z,6.33
2018-10-17T02:47:21.745Z,5.60
2018-10-17T02:48:01.154Z,8.50
2018-10-17T02:48:39.120Z,7.53
2018-10-17T02:49:17.141Z,21.73
2018-10-17T02:49:56.151Z,15.00
2018-10-17T02:50:34.649Z,30.80
2018-10-17T02:51:12.967Z,21.00
2018-10-17T02:51:51.169Z,15.63
2018-10-17T02:52:30.401Z,10.70
2018-10-17T02:53:09.203Z,22.40
2018-10-17T02:53:47.309Z,12.70
2018-10-17T02:54:25.528Z,13.43
2018-10-17T02:55:03.713Z,13.60
2018-10-17T02:55:41.915Z,9.93
2018-10-17T02:56:19.855Z,7.40
2018-10-17T02:56:59.419Z,8.63
2018-10-17T02:57:38.204Z,8.53
2018-10-17T02:58:16.715Z,8.43
2018-10-17T02:58:56.808Z,13.90
2018-10-17T02:59:35.000Z,8.77
2018-10-17T03:00:13.715Z,8.80
2018-10-17T03:00:52.177Z,9.40
2018-10-17T03:01:30.981Z,11.37
2018-10-17T03:02:10.281Z,13.70
2018-10-17T03:02:48.324Z,8.67
2018-10-17T03:03:26.657Z,17.03
2018-10-17T03:04:04.704Z,9.67
2018-10-17T03:04:42.691Z,16.87
2018-10-17T03:05:20.897Z,9.07
2018-10-17T03:05:59.318Z,9.40
2018-10-17T03:06:37.438Z,9.17
2018-10-17T03:07:15.736Z,9.67
2018-10-17T03:07:53.997Z,9.83
2018-10-17T03:08:32.349Z,16.93
2018-10-17T03:09:12.382Z,13.47
2018-10-17T03:09:50.651Z,10.77
2018-10-17T03:10:29.197Z,9.60
2018-10-17T03:11:07.656Z,12.07
2018-10-17T03:11:46.890Z,8.43
2018-10-17T03:12:25.070Z,10.97
2018-10-17T03:13:03.449Z,7.40
2018-10-17T03:13:42.048Z,9.27
2018-10-17T03:14:21.217Z,9.60
2018-10-17T03:15:00.563Z,8.50
2018-10-17T03:15:38.993Z,7.67
2018-10-17T03:16:18.435Z,8.00
2018-10-17T03:16:56.661Z,9.00
2018-10-17T03:17:35.120Z,10.10
2018-10-17T03:18:15.980Z,7.70
2018-10-17T03:18:54.232Z,7.90
2018-10-17T03:19:32.351Z,7.93
2018-10-17T03:20:12.335Z,9.03
2018-10-17T03:20:51.898Z,8.37
2018-10-17T03:21:29.951Z,8.80
2018-10-17T03:22:07.885Z,12.03
2018-10-17T03:22:45.823Z,7.47
2018-10-17T03:23:23.656Z,6.80
2018-10-17T03:24:02.205Z,10.13
2018-10-17T03:24:40.130Z,7.37
2018-10-17T03:25:18.662Z,7.43
2018-10-17T03:25:56.950Z,6.50
2018-10-17T03:26:35.750Z,12.13
2018-10-17T03:27:14.206Z,9.40
2018-10-17T03:27:54.931Z,6.17
2018-10-17T03:28:33.382Z,7.30
2018-10-17T03:29:11.994Z,7.93
2018-10-17T03:29:50.313Z,7.33
2018-10-17T03:30:28.129Z,7.37
2018-10-17T03:31:06.099Z,8.13
2018-10-17T03:31:44.216Z,8.90
2018-10-17T03:32:23.503Z,8.07
2018-10-17T03:33:02.564Z,19.47
2018-10-17T03:33:41.457Z,7.30
2018-10-17T03:34:19.447Z,11.63
2018-10-17T03:34:57.420Z,7.80
2018-10-17T03:35:35.324Z,7.57
2018-10-17T03:36:14.518Z,8.27
2018-10-17T03:36:54.651Z,9.83
2018-10-17T03:37:33.101Z,9.10
2018-10-17T03:38:11.368Z,11.87
2018-10-17T03:38:54.130Z,9.00
2018-10-17T03:39:32.072Z,7.43
2018-10-17T03:40:10.182Z,11.07
2018-10-17T03:40:48.616Z,12.07
2018-10-17T03:41:26.505Z,10.00
2018-10-17T03:42:06.297Z,6.30
2018-10-17T03:42:44.707Z,14.17
2018-10-17T03:43:23.558Z,21.33
2018-10-17T03:44:01.516Z,5.83
2018-10-17T03:44:39.972Z,6.70
2018-10-17T03:45:18.251Z,6.30
2018-10-17T03:45:56.379Z,5.60
2018-10-17T03:46:34.215Z,5.50
2018-10-17T03:47:12.630Z,6.80
2018-10-17T03:47:51.064Z,5.10
2018-10-17T03:48:29.077Z,5.40
2018-10-17T03:49:08.072Z,4.87
2018-10-17T03:49:46.189Z,13.10
2018-10-17T03:50:24.180Z,4.83
2018-10-17T03:51:02.091Z,4.33
2018-10-17T03:51:41.390Z,4.10
2018-10-17T03:52:19.523Z,6.87
2018-10-17T03:52:57.801Z,4.27
2018-10-17T03:53:36.378Z,6.60
2018-10-17T03:54:14.607Z,4.72
2018-10-17T03:54:52.633Z,4.50
2018-10-17T03:55:30.551Z,4.43
2018-10-17T03:56:08.473Z,4.20
2018-10-17T03:56:46.464Z,5.37
2018-10-17T03:57:24.525Z,4.03
2018-10-17T03:58:02.947Z,3.77
2018-10-17T03:58:40.791Z,3.67
2018-10-17T03:59:20.421Z,8.67
2018-10-17T03:59:58.413Z,5.63
2018-10-17T04:00:36.244Z,5.43
2018-10-17T04:01:14.879Z,4.63
2018-10-17T04:01:52.941Z,5.50
2018-10-17T04:02:31.079Z,3.70
2018-10-17T04:03:09.509Z,7.33
2018-10-17T04:03:48.243Z,4.40
2018-10-17T04:04:26.097Z,4.03
2018-10-17T04:05:03.989Z,4.17
2018-10-17T04:05:42.111Z,4.03
2018-10-17T04:06:20.069Z,4.37
2018-10-17T04:06:58.068Z,4.00
2018-10-17T04:07:36.522Z,3.80
2018-10-17T04:08:19.955Z,3.40
2018-10-17T04:08:57.957Z,4.40
2018-10-17T04:09:36.101Z,3.50
2018-10-17T04:10:14.392Z,4.42
2018-10-17T04:10:52.259Z,4.33
2018-10-17T04:11:30.448Z,3.03
2018-10-17T04:12:08.822Z,3.30
2018-10-17T04:12:46.881Z,5.60
2018-10-17T04:13:24.870Z,3.80
2018-10-17T04:14:02.736Z,3.93
2018-10-17T04:14:41.278Z,4.90
2018-10-17T04:15:19.357Z,4.50
2018-10-17T04:15:57.578Z,3.93
2018-10-17T04:16:35.488Z,8.33
2018-10-17T04:17:13.599Z,5.67
2018-10-17T04:17:51.780Z,4.80
2018-10-17T04:18:29.848Z,6.30
2018-10-17T04:19:07.908Z,5.40
2018-10-17T04:19:46.313Z,5.90
2018-10-17T04:20:24.481Z,6.40
2018-10-17T04:21:02.563Z,7.27
2018-10-17T04:21:40.517Z,10.63
2018-10-17T04:22:18.605Z,7.10
2018-10-17T04:22:58.816Z,6.70
2018-10-17T04:23:36.868Z,9.90
2018-10-17T04:24:14.824Z,10.87
2018-10-17T04:24:52.722Z,11.63
2018-10-17T04:25:30.664Z,5.57
2018-10-17T04:26:08.698Z,4.60
2018-10-17T04:26:46.790Z,4.03
2018-10-17T04:27:24.721Z,8.00
2018-10-17T04:28:03.205Z,5.63
2018-10-17T04:28:41.628Z,4.53
2018-10-17T04:29:19.921Z,5.20
2018-10-17T04:29:58.496Z,11.07
2018-10-17T04:30:36.377Z,7.97
2018-10-17T04:31:14.623Z,5.03
2018-10-17T04:31:52.570Z,5.90
2018-10-17T04:32:30.401Z,4.97
2018-10-17T04:33:08.585Z,7.60
2018-10-17T04:33:46.533Z,4.07
2018-10-17T04:34:25.127Z,5.53
2018-10-17T04:35:03.061Z,4.60
2018-10-17T04:35:40.911Z,8.97
2018-10-17T04:36:19.044Z,7.13
2018-10-17T04:36:57.031Z,4.20
2018-10-17T04:37:34.996Z,5.37
2018-10-17T04:38:13.239Z,3.30
2018-10-17T04:38:51.824Z,6.83
2018-10-17T04:39:30.213Z,4.20
2018-10-17T04:40:08.689Z,4.10
2018-10-17T04:40:47.836Z,9.50
2018-10-17T04:41:26.311Z,8.50
2018-10-17T04:42:04.539Z,8.57
2018-10-17T04:42:42.475Z,9.47
2018-10-17T04:43:21.732Z,11.30
2018-10-17T04:44:00.218Z,4.80
2018-10-17T04:44:38.083Z,4.10
2018-10-17T04:45:16.457Z,6.70
2018-10-17T04:45:54.426Z,3.77
2018-10-17T04:46:32.282Z,3.23
2018-10-17T04:47:10.968Z,3.13
2018-10-17T04:47:49.299Z,3.50
2018-10-17T04:48:27.637Z,6.63
2018-10-17T04:49:07.198Z,3.17
2018-10-17T04:49:45.949Z,4.40
2018-10-17T04:50:24.750Z,3.43
2018-10-17T04:51:02.946Z,5.43
2018-10-17T04:51:41.330Z,8.70
2018-10-17T04:52:19.590Z,4.20
2018-10-17T04:52:58.166Z,7.03
2018-10-17T04:53:36.094Z,5.07
2018-10-17T04:54:14.830Z,4.08
2018-10-17T04:54:52.799Z,8.37
2018-10-17T04:55:30.586Z,4.20
2018-10-17T04:56:09.019Z,4.23
2018-10-17T04:56:46.959Z,3.90
2018-10-17T04:57:24.778Z,4.17
2018-10-17T04:58:02.662Z,4.80
2018-10-17T04:58:40.512Z,3.77
2018-10-17T04:59:18.411Z,4.37
2018-10-17T04:59:56.506Z,3.00
2018-10-17T05:00:34.416Z,3.30
2018-10-17T05:01:12.932Z,2.20
2018-10-17T05:01:51.629Z,7.37
2018-10-17T05:02:29.528Z,3.90
2018-10-17T05:03:08.006Z,3.60
2018-10-17T05:03:46.560Z,2.83
2018-10-17T05:04:24.756Z,2.93
2018-10-17T05:05:02.757Z,2.20
2018-10-17T05:05:41.016Z,4.23
2018-10-17T05:06:19.363Z,3.80
2018-10-17T05:06:57.926Z,6.53
2018-10-17T05:07:35.880Z,2.30
2018-10-17T05:08:14.679Z,3.25
2018-10-17T05:08:52.960Z,2.53
2018-10-17T05:09:30.896Z,4.40
2018-10-17T05:10:08.848Z,11.20
2018-10-17T05:10:46.792Z,5.57
2018-10-17T05:11:25.113Z,2.77
2018-10-17T05:12:07.453Z,10.30
2018-10-17T05:12:45.927Z,8.50
2018-10-17T05:13:24.356Z,4.23
2018-10-17T05:14:02.429Z,5.17
2018-10-17T05:14:40.766Z,3.57
2018-10-17T05:15:18.973Z,5.87
2018-10-17T05:15:57.153Z,10.33
2018-10-17T05:16:35.110Z,6.17
2018-10-17T05:17:13.136Z,3.47
2018-10-17T05:17:51.083Z,5.17
2018-10-17T05:18:28.973Z,4.13
2018-10-17T05:19:08.027Z,5.53
2018-10-17T05:19:46.117Z,3.07
2018-10-17T05:20:25.177Z,7.30
2018-10-17T05:21:03.527Z,2.93
2018-10-17T05:21:41.745Z,5.33
2018-10-17T05:22:20.074Z,2.33
2018-10-17T05:22:58.001Z,4.80
2018-10-17T05:23:36.077Z,2.20
2018-10-17T05:24:14.676Z,2.75
2018-10-17T05:24:52.584Z,2.10
2018-10-17T05:25:30.513Z,2.90
2018-10-17T05:26:09.632Z,2.33
2018-10-17T05:26:47.772Z,2.80
2018-10-17T05:27:25.768Z,7.03
2018-10-17T05:28:03.910Z,6.10
2018-10-17T05:28:41.765Z,3.90
2018-10-17T05:29:19.947Z,7.43
2018-10-17T05:29:59.147Z,2.23
2018-10-17T05:30:37.040Z,8.83
2018-10-17T05:31:15.129Z,4.13
2018-10-17T05:31:53.153Z,3.27
2018-10-17T05:32:31.085Z,3.20
2018-10-17T05:33:10.133Z,5.33
2018-10-17T05:33:48.917Z,8.93
2018-10-17T05:34:26.848Z,2.40
2018-10-17T05:35:04.777Z,7.43
2018-10-17T05:35:42.757Z,2.43
2018-10-17T05:36:20.920Z,5.20
2018-10-17T05:36:58.930Z,3.70
2018-10-17T05:37:36.959Z,3.67
2018-10-17T05:38:15.370Z,3.47
2018-10-17T05:38:53.760Z,3.10
2018-10-17T05:39:31.944Z,4.00
2018-10-17T05:40:10.242Z,5.83
2018-10-17T05:40:48.442Z,3.67
2018-10-17T05:41:27.788Z,4.40
2018-10-17T05:42:05.859Z,3.77
2018-10-17T05:42:43.922Z,3.30
2018-10-17T05:43:21.812Z,3.90
2018-10-17T05:43:59.765Z,5.27
2018-10-17T05:44:37.718Z,5.00
2018-10-17T05:45:16.263Z,3.93
2018-10-17T05:45:54.767Z,9.30
2018-10-17T05:46:33.957Z,3.80
2018-10-17T05:47:12.345Z,3.17
2018-10-17T05:47:50.295Z,6.43
2018-10-17T05:48:29.731Z,4.40
2018-10-17T05:49:09.743Z,12.23
2018-10-17T05:49:47.619Z,9.40
2018-10-17T05:50:29.395Z,9.23
2018-10-17T05:51:07.256Z,14.40
2018-10-17T05:51:45.071Z,5.73
2018-10-17T05:52:22.960Z,5.77
2018-10-17T05:53:01.495Z,7.63
2018-10-17T05:53:39.514Z,10.33
2018-10-17T05:54:17.453Z,3.13
2018-10-17T05:54:55.824Z,9.53
2018-10-17T05:55:34.179Z,11.67
2018-10-17T05:56:12.465Z,3.43
2018-10-17T05:56:51.567Z,3.10
2018-10-17T05:57:30.080Z,3.30
2018-10-17T05:58:08.474Z,5.23
2018-10-17T05:58:47.743Z,12.33
2018-10-17T05:59:26.023Z,4.37
2018-10-17T06:00:04.697Z,4.10
2018-10-17T06:00:43.116Z,7.03
2018-10-17T06:01:21.589Z,8.00
2018-10-17T06:02:01.211Z,5.97
2018-10-17T06:02:40.268Z,6.87
2018-10-17T06:03:18.617Z,2.90
2018-10-17T06:03:57.110Z,6.93
2018-10-17T06:04:35.707Z,3.30
2018-10-17T06:05:14.317Z,3.97
2018-10-17T06:05:52.467Z,5.33
2018-10-17T06:06:30.318Z,3.73
2018-10-17T06:07:08.702Z,3.13
2018-10-17T06:07:47.462Z,5.70
2018-10-17T06:08:25.934Z,2.80
2018-10-17T06:09:04.628Z,2.60
2018-10-17T06:09:43.027Z,2.33
2018-10-17T06:10:20.980Z,4.80
2018-10-17T06:10:59.449Z,2.97
2018-10-17T06:11:37.688Z,6.03
2018-10-17T06:12:15.717Z,11.67
2018-10-17T06:12:53.823Z,7.47
2018-10-17T06:13:32.071Z,3.73
2018-10-17T06:14:14.216Z,5.87
2018-10-17T06:14:52.702Z,3.77
2018-10-17T06:15:30.736Z,2.50
2018-10-17T06:16:09.065Z,3.73
2018-10-17T06:16:48.477Z,3.60
2018-10-17T06:17:27.043Z,3.20
2018-10-17T06:18:06.503Z,7.87
2018-10-17T06:18:45.477Z,6.83
2018-10-17T06:19:23.985Z,7.07
2018-10-17T06:20:02.480Z,3.20
2018-10-17T06:20:40.672Z,6.17
2018-10-17T06:21:18.708Z,2.70
2018-10-17T06:21:57.923Z,3.93
2018-10-17T06:22:36.348Z,5.90
2018-10-17T06:23:14.610Z,4.80
2018-10-17T06:23:53.160Z,5.53
2018-10-17T06:24:31.332Z,15.30
2018-10-17T06:25:09.859Z,6.77
2018-10-17T06:25:47.843Z,2.43
2018-10-17T06:26:25.970Z,3.20
2018-10-17T06:27:03.911Z,4.70
2018-10-17T06:27:41.779Z,5.50
2018-10-17T06:28:19.916Z,3.93
2018-10-17T06:28:57.960Z,11.27
2018-10-17T06:29:37.309Z,8.07
2018-10-17T06:30:15.277Z,11.70
2018-10-17T06:30:53.173Z,3.93
2018-10-17T06:31:31.484Z,4.90
2018-10-17T06:32:10.092Z,6.30
2018-10-17T06:32:48.473Z,10.00
2018-10-17T06:33:27.600Z,17.17
2018-10-17T06:34:06.162Z,9.90
2018-10-17T06:34:44.600Z,17.77
2018-10-17T06:35:22.961Z,18.00
2018-10-17T06:36:01.108Z,11.27
2018-10-17T06:36:39.924Z,10.80
2018-10-17T06:37:18.416Z,8.23
2018-10-17T06:37:56.784Z,10.37
2018-10-17T06:38:34.843Z,10.07
2018-10-17T06:39:14.129Z,21.03
2018-10-17T06:39:52.507Z,13.10
2018-10-17T06:40:30.395Z,15.83
2018-10-17T06:41:08.876Z,26.27
2018-10-17T06:41:47.012Z,15.70
2018-10-17T06:42:25.004Z,17.10
2018-10-17T06:43:03.355Z,16.13
2018-10-17T06:43:41.806Z,14.57
2018-10-17T06:44:20.221Z,11.93
2018-10-17T06:44:58.721Z,6.87
2018-10-17T06:45:36.649Z,16.57
2018-10-17T06:46:14.925Z,18.98
2018-10-17T06:46:53.431Z,17.40
2018-10-17T06:47:31.617Z,9.70
2018-10-17T06:48:09.745Z,7.70
2018-10-17T06:48:48.904Z,11.63
2018-10-17T06:49:27.268Z,7.23
2018-10-17T06:50:05.806Z,7.13
2018-10-17T06:50:43.690Z,18.43
2018-10-17T06:51:21.819Z,6.60
2018-10-17T06:52:00.974Z,17.83
2018-10-17T06:52:38.972Z,5.70
2018-10-17T06:53:16.955Z,9.30
2018-10-17T06:53:55.015Z,20.83
2018-10-17T06:54:33.166Z,6.67
2018-10-17T06:55:11.519Z,9.83
2018-10-17T06:55:49.613Z,7.70
2018-10-17T06:56:27.494Z,5.00
2018-10-17T06:57:05.381Z,10.50
2018-10-17T06:57:43.258Z,4.80
2018-10-17T06:58:21.158Z,4.03
2018-10-17T06:58:59.116Z,4.07
2018-10-17T06:59:37.080Z,7.50
2018-10-17T07:00:15.080Z,5.20
2018-10-17T07:00:52.921Z,4.23
2018-10-17T07:01:31.046Z,3.40
2018-10-17T07:02:09.313Z,4.20
2018-10-17T07:02:47.357Z,12.63
2018-10-17T07:03:25.262Z,6.07
2018-10-17T07:04:03.608Z,5.80
2018-10-17T07:04:41.406Z,3.23
2018-10-17T07:05:19.312Z,3.97
2018-10-17T07:05:57.232Z,3.23
2018-10-17T07:06:35.324Z,4.60
2018-10-17T07:07:13.219Z,9.23
2018-10-17T07:07:51.352Z,5.20
2018-10-17T07:08:29.654Z,9.37
2018-10-17T07:09:09.749Z,5.90
2018-10-17T07:09:48.073Z,3.13
2018-10-17T07:10:25.943Z,4.40
2018-10-17T07:11:03.842Z,2.47
2018-10-17T07:11:42.086Z,4.27
2018-10-17T07:12:20.240Z,8.33
2018-10-17T07:12:58.252Z,3.50
2018-10-17T07:13:36.250Z,9.30
2018-10-17T07:14:14.461Z,2.85
2018-10-17T07:14:52.388Z,7.10
2018-10-17T07:15:30.946Z,2.40
2018-10-17T07:16:08.881Z,7.43
2018-10-17T07:16:46.892Z,3.83
2018-10-17T07:17:25.304Z,6.53
2018-10-17T07:18:04.703Z,2.87
2018-10-17T07:18:42.674Z,11.00
2018-10-17T07:19:21.386Z,3.27
2018-10-17T07:19:59.614Z,5.00
2018-10-17T07:20:37.529Z,2.63
2018-10-17T07:21:15.357Z,3.37
2018-10-17T07:21:53.231Z,5.33
2018-10-17T07:22:31.922Z,7.90
2018-10-17T07:23:10.504Z,2.20
2018-10-17T07:23:48.525Z,7.17
2018-10-17T07:24:26.365Z,5.10
2018-10-17T07:25:04.543Z,5.20
2018-10-17T07:25:42.468Z,2.17
2018-10-17T07:26:20.476Z,2.50
2018-10-17T07:26:59.616Z,2.20
2018-10-17T07:27:37.580Z,4.87
2018-10-17T07:28:15.555Z,3.60
2018-10-17T07:28:53.639Z,3.00
2018-10-17T07:29:32.908Z,2.40
2018-10-17T07:30:12.007Z,6.10
2018-10-17T07:30:49.899Z,2.43
2018-10-17T07:31:27.849Z,3.83
2018-10-17T07:32:05.709Z,6.23
2018-10-17T07:32:43.685Z,4.77
2018-10-17T07:33:21.678Z,2.37
2018-10-17T07:33:59.624Z,2.03
2018-10-17T07:34:38.676Z,2.33
2018-10-17T07:35:16.650Z,3.87
2018-10-17T07:35:54.528Z,9.27
2018-10-17T07:36:32.879Z,3.00
2018-10-17T07:37:11.167Z,2.63
2018-10-17T07:37:49.160Z,3.10
2018-10-17T07:38:27.119Z,9.20
2018-10-17T07:39:05.109Z,2.00
2018-10-17T07:39:43.074Z,2.63
2018-10-17T07:40:21.030Z,3.20
2018-10-17T07:40:59.083Z,7.13
2018-10-17T07:41:37.091Z,2.73
2018-10-17T07:42:15.312Z,6.53
2018-10-17T07:42:53.310Z,4.07
2018-10-17T07:43:31.233Z,7.30
2018-10-17T07:44:09.380Z,10.03
2018-10-17T07:44:47.301Z,3.63
2018-10-17T07:45:25.242Z,4.70
2018-10-17T07:46:03.381Z,4.00
2018-10-17T07:46:41.339Z,2.50
2018-10-17T07:47:19.584Z,1.67
2018-10-17T07:47:57.528Z,3.90
2018-10-17T07:48:35.596Z,2.23
2018-10-17T07:49:13.644Z,6.53
2018-10-17T07:49:51.738Z,5.27
2018-10-17T07:50:29.735Z,2.40
2018-10-17T07:51:08.161Z,2.47
2018-10-17T07:51:47.063Z,3.13
2018-10-17T07:52:24.967Z,2.20
2018-10-17T07:53:03.915Z,4.43
2018-10-17T07:53:42.381Z,4.63
2018-10-17T07:54:21.514Z,5.03
2018-10-17T07:54:59.448Z,4.77
2018-10-17T07:55:37.881Z,2.77
2018-10-17T07:56:15.822Z,2.00
2018-10-17T07:56:53.724Z,2.40
2018-10-17T07:57:31.585Z,1.77
2018-10-17T07:58:09.624Z,1.30
2018-10-17T07:58:47.596Z,2.73
2018-10-17T07:59:25.547Z,1.40
2018-10-17T08:00:03.589Z,2.40
2018-10-17T08:00:41.547Z,13.70
2018-10-17T08:01:19.823Z,4.73
2018-10-17T08:01:58.463Z,2.93
2018-10-17T08:02:36.406Z,3.83
2018-10-17T08:03:14.445Z,1.60
2018-10-17T08:03:52.390Z,2.50
2018-10-17T08:04:30.453Z,1.60
2018-10-17T08:05:08.556Z,1.97
2018-10-17T08:05:46.574Z,3.53
2018-10-17T08:06:24.791Z,2.20
2018-10-17T08:07:04.028Z,1.83
2018-10-17T08:07:41.954Z,3.17
2018-10-17T08:08:20.049Z,1.63
2018-10-17T08:08:58.017Z,5.10
2018-10-17T08:09:35.832Z,1.73
2018-10-17T08:10:14.622Z,2.02
2018-10-17T08:10:52.512Z,1.97
2018-10-17T08:11:30.905Z,2.40
2018-10-17T08:12:10.679Z,3.40
2018-10-17T08:12:50.143Z,3.07
2018-10-17T08:13:27.983Z,1.13
2018-10-17T08:14:05.984Z,1.50
2018-10-17T08:14:44.841Z,1.73
2018-10-17T08:15:24.020Z,1.67
2018-10-17T08:16:02.115Z,2.87
2018-10-17T08:16:40.216Z,1.70
2018-10-17T08:17:18.007Z,1.83
2018-10-17T08:17:56.086Z,4.80
2018-10-17T08:18:33.992Z,3.53
2018-10-17T08:19:11.952Z,1.57
2018-10-17T08:19:49.821Z,2.47
2018-10-17T08:20:27.701Z,1.40
2018-10-17T08:21:05.756Z,1.67
2018-10-17T08:21:43.713Z,11.60
2018-10-17T08:22:22.810Z,1.70
2018-10-17T08:23:00.713Z,1.70
2018-10-17T08:23:38.537Z,4.83
2018-10-17T08:24:16.503Z,3.30
2018-10-17T08:24:54.441Z,3.23
2018-10-17T08:25:32.599Z,3.60
2018-10-17T08:26:10.486Z,2.30
2018-10-17T08:26:48.590Z,3.17